Traverse City, MI (49686)

8:10 AM EDT on May 26, 2017 (GMT -0400)
Peyton Beach | | Change Station
Active Advisory: Special Statement

Elev 577 ft 44.80 °N, 85.58 °W | Updated 11 seconds ago

Overcast
Overcast
49.6 °F
Feels Like 50 °F
N
0.0
Wind Variable Wind from NW
Gusts 0.0 mph

Today
High -- | Low -- °F
--% Chance of Precip.
Yesterday
High -- | Low -- °F
Precip. -- in
Pressure 29.83 in
Visibility 3.0 miles
Clouds Few 200 ft
Mostly Cloudy 800 ft
Windchill 50 °F
Dew Point 50 °F
Humidity 99%
Rainfall 0.00 in
Snow Depth Not available.
6:03 AM 9:16 PM
New Moon, 1% visible
METAR KTVC 261153Z 00000KT 3SM BR FEW002 BKN008 12/10 A2982 RMK AO2 SLP099 70003 T01170100 10117 20100 51017
Pressure 29.83 in
Visibility 3.0 miles
Clouds Few 200 ft
Mostly Cloudy 800 ft
Windchill 50 °F
Dew Point 50 °F
Humidity 99%
Rainfall 0.00 in
Snow Depth Not available.
6:03 AM 9:16 PM
New Moon, 1% visible
METAR KTVC 261153Z 00000KT 3SM BR FEW002 BKN008 12/10 A2982 RMK AO2 SLP099 70003 T01170100 10117 20100 51017

Get Your Daily Forecast Email!

Thanks for signing up!

Be on the lookout for a verification email in your inbox.

You'll start receiving severe weather alerts in your inbox..

×

10-Day Weather Forecast

Almanac

Astronomy

May. 26, 2017 Rise Set
Actual Time
Civil Twilight
Nautical Twilight
Astronomical Twilight
Moon
Length of Visible Light
Length of Day
Tomorrow will be .
, % of the Moon is Illuminated

Today's Extremes

State Highs State Lows

Community

WunderPhotos

Category 6

Welcome to Category 6. This is the collective home for Weather Underground's featured writeups by Dr. Jeff Masters (right), Bob Henson (left), Chris Burt, and other regular contributors.

Nearby

Air Quality

  Air Quality AQ Index Pollutant
Not available.

Snow Depth

Station Depth Elevation

Earthquake Activity

City Distance Mag. Time & Date
Minimum magnitude displayed is 2.5.

Coastal Water Temperatures

Place Temperature

Stations

Nearby Weather Stations

Station Location Temp. Windchill Dew Point Humidity Wind Precip. Elev Updated Type
                   

Watches & Warnings

Special Statement
Issued: 7:36 AM EDT May. 26, 2017 – National Weather Service

... Locally dense fog along the Lake Michigan coastline this
morning...

Locally dense fog will be seen through mid morning along the Lake
Michigan coastline of northwest lower Michigan, including Grand
Traverse Bay. Travel along portions of US-31 and M-22 may be
impacted. Visibilities of a quarter mile or less will occur in
spots. When traveling this morning, slow down, use extra
caution, and allow extra time to reach your destination.


Jz